Time;durP1;ratioP1;P1;durP2;ratioP2;P2;SDS_P1;SDS_P2;PMS_P1;PMS_P2;Temp;Humidity;BMP_temperature;BMP_pressure;BME280_temperature;BME280_humidity;BME280_pressure;Samples;Min_cycle;Max_cycle;Signal;HPM_P1;HPM_P2
2022/09/25 00:01:13;;;;;;;;;;;;;;;14.18;83.98;99670.25;5057632;28;19915;-85
2022/09/25 00:03:39;;;;;;;;;;;;;;;14.05;84.25;99666.31;5058379;28;19909;-86
2022/09/25 00:06:05;;;;;;;;;;;;;;;14.12;84.39;99673.06;5057979;28;19912;-84
2022/09/25 00:08:32;;;;;;;;;;;;;;;14.18;83.73;99676.56;5057486;28;19916;-86
2022/09/25 00:10:57;;;;;;;;;;;;;;;14.20;83.49;99673.53;5057428;28;19908;-86
2022/09/25 00:13:22;;;;;;;;;;;;;;;14.00;83.39;99678.94;5057421;28;19931;-86
2022/09/25 00:15:50;;;;;;;;;;;;;;;14.06;83.50;99665.19;5057140;28;19908;-86
2022/09/25 00:18:15;;;;;;;;;;;;;;;14.09;82.91;99665.44;5057281;28;19908;-86
2022/09/25 00:20:41;;;;;;;;;;;;;;;13.98;82.99;99678.41;5056761;28;19966;-86
2022/09/25 00:23:06;;;;;;;;;;;;;;;14.01;82.86;99683.31;5057184;28;19909;-86
2022/09/25 00:25:32;;;;;;;;;;;;;;;13.91;83.01;99677.97;5057291;28;20354;-85
2022/09/25 00:27:57;;;;;;;;;;;;;;;13.94;83.52;99679.28;5057195;28;19908;-85
2022/09/25 00:30:22;;;;;;;;;;;;;;;13.95;83.09;99678.19;5057090;28;19909;-85
2022/09/25 00:32:48;;;;;;;;;;;;;;;13.91;83.37;99682.63;5056927;28;19908;-86
2022/09/25 00:35:13;;;;;;;;;;;;;;;13.95;82.79;99681.72;5057371;28;19913;-85
2022/09/25 00:37:38;;;;;;;;;;;;;;;13.86;83.17;99678.81;5056968;28;19909;-85
2022/09/25 00:40:04;;;;;;;;;;;;;;;13.91;82.98;99668.91;5056290;28;20019;-86
2022/09/25 00:42:30;;;;;;;;;;;;;;;13.64;82.86;99668.34;5055684;28;19916;-86
2022/09/25 00:45:03;;;;;;;;;;;;;;;13.52;83.15;99676.91;5056755;28;19912;-86
2022/09/25 00:47:31;;;;;;;;;;;;;;;13.75;82.43;99674.56;5056841;28;19908;-86
2022/09/25 00:49:58;;;;;;;;;;;;;;;13.84;81.79;99683.78;5056681;28;19992;-86
2022/09/25 00:52:24;;;;;;;;;;;;;;;13.84;81.52;99685.69;5057113;28;20312;-86
2022/09/25 00:54:52;;;;;;;;;;;;;;;13.92;81.47;99676.84;5057121;28;19909;-86
2022/09/25 00:57:19;;;;;;;;;;;;;;;13.85;81.15;99674.44;5057235;28;19908;-86
2022/09/25 00:59:46;;;;;;;;;;;;;;;13.86;81.52;99683.47;5055520;28;19909;-86
2022/09/25 01:02:16;;;;;;;;;;;;;;;13.92;81.26;99679.56;5057009;28;19909;-86
2022/09/25 01:04:45;;;;;;;;;;;;;;;14.04;81.11;99681.91;5056352;28;19913;-87
2022/09/25 01:07:10;;;;;;;;;;;;;;;14.01;81.19;99677.03;5056339;28;20350;-86
2022/09/25 01:09:35;;;;;;;;;;;;;;;13.97;81.31;99687.72;5056594;28;19920;-86
2022/09/25 01:12:01;;;;;;;;;;;;;;;14.01;81.23;99688.00;5056299;28;20345;-86
2022/09/25 01:14:26;;;;;;;;;;;;;;;14.01;81.22;99683.31;5056206;28;19909;-85
2022/09/25 01:16:59;;;;;;;;;;;;;;;14.08;81.15;99680.25;5055172;28;19909;-85
2022/09/25 01:19:34;;;;;;;;;;;;;;;13.98;81.27;99686.66;5056405;28;19908;-85
2022/09/25 01:22:18;;;;;;;;;;;;;;;14.08;81.41;99682.16;5056672;28;19962;-85
2022/09/25 01:24:53;;;;;;;;;;;;;;;14.06;81.56;99679.72;5056235;28;19909;-85
2022/09/25 01:27:21;;;;;;;;;;;;;;;14.03;81.50;99674.81;5056045;28;19912;-86
2022/09/25 01:30:05;;;;;;;;;;;;;;;13.99;81.88;99684.72;5056114;28;19916;-85
2022/09/25 01:32:30;;;;;;;;;;;;;;;14.00;81.77;99681.69;5055900;28;19909;-85
2022/09/25 01:35:02;;;;;;;;;;;;;;;14.04;81.68;99681.09;5055544;28;20388;-86
2022/09/25 01:37:30;;;;;;;;;;;;;;;13.92;82.80;99684.22;5055737;28;19970;-86
2022/09/25 01:39:58;;;;;;;;;;;;;;;13.96;83.10;99686.13;5056510;28;20012;-86
2022/09/25 01:42:29;;;;;;;;;;;;;;;14.00;82.91;99694.56;5055912;28;19908;-86
2022/09/25 01:45:00;;;;;;;;;;;;;;;13.93;83.16;99691.38;5056353;28;19948;-85
2022/09/25 01:47:27;;;;;;;;;;;;;;;13.73;84.11;99687.72;5058896;28;20301;-85
2022/09/25 01:49:58;;;;;;;;;;;;;;;13.64;83.93;99693.81;5060606;28;20371;-84
2022/09/25 01:52:24;;;;;;;;;;;;;;;13.59;84.11;99693.84;5056137;28;19909;-85
2022/09/25 01:54:51;;;;;;;;;;;;;;;13.58;84.59;99691.41;5055482;28;19909;-85
2022/09/25 01:57:17;;;;;;;;;;;;;;;13.51;84.56;99688.94;5055957;28;19909;-85
2022/09/25 01:59:44;;;;;;;;;;;;;;;13.52;84.79;99693.34;5055901;28;19916;-85
2022/09/25 02:02:14;;;;;;;;;;;;;;;13.69;84.84;99697.63;5055442;28;19909;-85
2022/09/25 02:04:45;;;;;;;;;;;;;;;13.63;85.14;99688.59;5055380;28;19916;-85
2022/09/25 02:07:15;;;;;;;;;;;;;;;13.64;85.58;99696.56;5055069;28;19915;-85
2022/09/25 02:09:43;;;;;;;;;;;;;;;13.70;86.20;99688.28;5055243;28;19912;-85
2022/09/25 02:12:14;;;;;;;;;;;;;;;13.62;85.95;99687.81;5055322;28;19909;-85
2022/09/25 02:14:45;;;;;;;;;;;;;;;13.75;86.39;99697.25;5055352;28;19913;-85
2022/09/25 02:20:30;;;;;;;;;;;;;;;13.76;86.16;99689.88;5055170;28;19954;-85
2022/09/25 02:22:42;;;;;;;;;;;;;;;13.61;86.52;99685.34;5055497;28;20411;-86
2022/09/25 02:25:17;;;;;;;;;;;;;;;13.63;86.90;99689.44;5070772;28;19908;-85
2022/09/25 02:27:42;;;;;;;;;;;;;;;13.47;87.11;99690.63;5054939;28;19908;-85
2022/09/25 02:30:10;;;;;;;;;;;;;;;13.55;86.93;99692.78;5054820;28;19916;-86
2022/09/25 02:32:35;;;;;;;;;;;;;;;13.65;86.73;99695.44;5055524;28;19920;-85
2022/09/25 02:35:00;;;;;;;;;;;;;;;13.57;86.20;99693.31;5054890;28;19913;-85
2022/09/25 02:37:26;;;;;;;;;;;;;;;13.51;86.68;99691.69;5054771;28;20330;-85
2022/09/25 02:39:53;;;;;;;;;;;;;;;13.39;87.15;99695.63;5054929;28;19916;-85
2022/09/25 02:42:37;;;;;;;;;;;;;;;13.48;87.12;99697.75;5054855;28;19909;-85
2022/09/25 02:45:21;;;;;;;;;;;;;;;13.60;85.87;99695.50;5055097;28;19909;-86
2022/09/25 02:47:53;;;;;;;;;;;;;;;13.60;85.40;99695.50;5055497;28;19908;-85
2022/09/25 02:50:18;;;;;;;;;;;;;;;13.52;85.79;99685.13;5055126;28;19931;-85
2022/09/25 02:53:09;;;;;;;;;;;;;;;13.49;85.25;99691.16;5055433;28;20011;-85
2022/09/25 02:55:38;;;;;;;;;;;;;;;13.37;85.71;99686.88;5038357;28;19915;-85
2022/09/25 02:58:15;;;;;;;;;;;;;;;13.33;85.85;99688.53;5055302;28;19920;-85
2022/09/25 03:00:42;;;;;;;;;;;;;;;13.54;85.97;99688.41;5055197;28;19912;-86
2022/09/25 03:03:10;;;;;;;;;;;;;;;13.52;84.82;99682.38;5054804;28;20304;-85
2022/09/25 03:05:36;;;;;;;;;;;;;;;13.54;84.66;99680.19;5054522;28;19913;-84
2022/09/25 03:10:46;;;;;;;;;;;;;;;13.52;85.10;99687.84;5055060;28;20019;-85
2022/09/25 03:13:22;;;;;;;;;;;;;;;13.50;84.77;99684.59;5054527;28;19948;-85
2022/09/25 03:15:50;;;;;;;;;;;;;;;13.54;84.10;99688.41;5054542;28;19912;-86
2022/09/25 03:18:15;;;;;;;;;;;;;;;13.57;84.39;99690.56;5055124;28;19955;-85
2022/09/25 03:20:41;;;;;;;;;;;;;;;13.58;84.74;99694.97;5054497;28;20346;-85
2022/09/25 03:23:06;;;;;;;;;;;;;;;13.58;84.12;99686.75;5057403;28;19908;-85
2022/09/25 03:25:32;;;;;;;;;;;;;;;13.54;83.93;99691.16;5058283;28;19909;-85
2022/09/25 03:27:57;;;;;;;;;;;;;;;13.61;83.97;99691.63;5058269;28;19909;-85
2022/09/25 03:30:23;;;;;;;;;;;;;;;13.57;83.73;99696.06;5058269;28;20354;-85
2022/09/25 03:32:48;;;;;;;;;;;;;;;13.60;83.45;99695.50;5058676;28;19909;-85
2022/09/25 03:35:13;;;;;;;;;;;;;;;13.57;83.22;99703.44;5057612;28;19912;-85
2022/09/25 03:37:38;;;;;;;;;;;;;;;13.54;83.27;99696.63;5057960;28;19915;-84
2022/09/25 03:40:04;;;;;;;;;;;;;;;13.49;83.74;99697.47;5058596;28;19916;-85
2022/09/25 03:42:31;;;;;;;;;;;;;;;13.47;83.21;99702.41;5057950;28;19931;-86
2022/09/25 03:44:56;;;;;;;;;;;;;;;13.39;83.17;99701.09;5057859;28;19952;-86
2022/09/25 03:47:21;;;;;;;;;;;;;;;13.35;83.50;99702.78;5057732;28;19963;-86
2022/09/25 03:49:46;;;;;;;;;;;;;;;13.41;83.95;99707.09;5057608;28;19961;-85
2022/09/25 03:52:13;;;;;;;;;;;;;;;13.43;83.06;99702.16;5057982;28;19930;-85
2022/09/25 03:54:38;;;;;;;;;;;;;;;13.49;83.46;99693.88;5057712;28;19909;-85
2022/09/25 03:57:03;;;;;;;;;;;;;;;13.50;82.55;99692.81;5057810;28;19908;-85
2022/09/25 03:59:28;;;;;;;;;;;;;;;13.42;82.73;99695.03;5057556;28;19935;-85
2022/09/25 04:01:53;;;;;;;;;;;;;;;13.36;82.85;99701.69;5057762;28;20368;-85
2022/09/25 04:04:19;;;;;;;;;;;;;;;13.36;83.12;99698.13;5057521;28;20330;-85
2022/09/25 04:06:44;;;;;;;;;;;;;;;13.27;82.38;99693.25;5057675;28;19916;-85
2022/09/25 04:09:10;;;;;;;;;;;;;;;13.47;82.01;99687.88;5058001;28;19908;-85
2022/09/25 04:11:35;;;;;;;;;;;;;;;13.43;81.81;99693.94;5057808;28;19975;-85
2022/09/25 04:14:01;;;;;;;;;;;;;;;13.48;82.01;99695.00;5057691;28;20338;-85
2022/09/25 04:16:30;;;;;;;;;;;;;;;13.41;81.85;99700.81;5057249;28;19916;-85
2022/09/25 04:18:55;;;;;;;;;;;;;;;13.56;80.85;99686.22;5057245;28;19959;-85
2022/09/25 04:21:20;;;;;;;;;;;;;;;13.46;80.88;99689.00;5057590;28;19909;-85
2022/09/25 04:24:47;;;;;;;;;;;;;;;13.39;81.49;99679.19;5057979;28;19970;-85
2022/09/25 04:26:31;;;;;;;;;;;;;;;13.25;81.32;99689.16;5056842;28;19916;-85
2022/09/25 04:28:56;;;;;;;;;;;;;;;13.17;82.11;99687.84;5057637;28;19908;-85
2022/09/25 04:31:21;;;;;;;;;;;;;;;13.25;81.73;99695.44;5057093;28;19909;-85
2022/09/25 04:33:46;;;;;;;;;;;;;;;13.30;81.29;99691.88;5057027;28;19916;-85
2022/09/25 04:36:12;;;;;;;;;;;;;;;13.27;81.31;99698.72;5056835;28;20002;-85
2022/09/25 04:38:38;;;;;;;;;;;;;;;13.22;81.58;99692.47;5056808;28;19908;-85
2022/09/25 04:41:04;;;;;;;;;;;;;;;13.33;80.75;99691.28;5057396;28;19908;-85
2022/09/25 04:43:30;;;;;;;;;;;;;;;13.26;80.55;99690.81;5057410;28;19908;-86
2022/09/25 04:46:00;;;;;;;;;;;;;;;13.30;80.68;99691.88;5055661;28;19913;-85
2022/09/25 04:48:25;;;;;;;;;;;;;;;13.16;80.48;99687.00;5055795;28;20251;-85
2022/09/25 04:50:51;;;;;;;;;;;;;;;13.15;81.31;99695.50;5056872;28;19915;-85
2022/09/25 04:53:17;;;;;;;;;;;;;;;13.01;81.24;99689.84;5057190;28;19908;-85
2022/09/25 04:55:42;;;;;;;;;;;;;;;12.96;81.30;99694.25;5056247;28;20330;-85
2022/09/25 04:58:08;;;;;;;;;;;;;;;12.89;81.17;99696.50;5056603;28;20354;-85
2022/09/25 05:00:35;;;;;;;;;;;;;;;12.87;80.71;99695.13;5056803;28;19999;-85
2022/09/25 05:03:01;;;;;;;;;;;;;;;12.75;80.69;99690.00;5057400;28;19913;-85
2022/09/25 05:05:29;;;;;;;;;;;;;;;12.86;80.39;99688.84;5055642;28;19909;-85
2022/09/25 05:07:55;;;;;;;;;;;;;;;12.45;81.62;99684.38;5057232;28;19915;-85
2022/09/25 05:10:21;;;;;;;;;;;;;;;12.53;80.71;99696.66;5056314;28;19915;-85
2022/09/25 05:12:47;;;;;;;;;;;;;;;12.37;81.13;99693.97;5056151;28;19909;-85
2022/09/25 05:15:12;;;;;;;;;;;;;;;12.29;81.18;99689.06;5056219;28;19913;-84
2022/09/25 05:17:38;;;;;;;;;;;;;;;12.31;81.24;99692.34;5055985;28;19912;-85
2022/09/25 05:20:03;;;;;;;;;;;;;;;12.29;81.07;99689.06;5056341;28;19912;-86
2022/09/25 05:22:28;;;;;;;;;;;;;;;12.17;81.34;99679.28;5056734;28;19915;-86
2022/09/25 05:24:53;;;;;;;;;;;;;;;12.14;80.98;99686.09;5056117;28;19955;-86
2022/09/25 05:27:20;;;;;;;;;;;;;;;12.05;81.35;99679.56;5056060;28;19909;-86
2022/09/25 05:29:45;;;;;;;;;;;;;;;11.91;81.88;99692.97;5056044;28;19913;-85
2022/09/25 05:32:10;;;;;;;;;;;;;;;12.11;81.61;99692.13;5055956;28;19961;-85
2022/09/25 05:34:35;;;;;;;;;;;;;;;12.11;81.61;99692.13;5055607;28;19913;-86
2022/09/25 05:37:02;;;;;;;;;;;;;;;12.12;81.17;99690.22;5056292;28;19909;-86
2022/09/25 05:39:27;;;;;;;;;;;;;;;12.12;80.99;99682.84;5056588;28;19931;-85
2022/09/25 05:41:52;;;;;;;;;;;;;;;12.15;80.79;99681.47;5055966;28;19909;-85
2022/09/25 05:44:17;;;;;;;;;;;;;;;12.06;81.40;99674.91;5055077;28;19909;-86
2022/09/25 05:46:42;;;;;;;;;;;;;;;11.96;81.12;99690.22;5055462;28;19912;-89
2022/09/25 05:49:08;;;;;;;;;;;;;;;12.08;81.52;99689.13;5056250;28;19932;-86
2022/09/25 05:51:33;;;;;;;;;;;;;;;12.05;81.43;99689.66;5055789;28;19976;-90
2022/09/25 05:54:01;;;;;;;;;;;;;;;11.98;81.99;99698.16;5055495;28;19956;-88
2022/09/25 05:56:26;;;;;;;;;;;;;;;12.20;80.83;99692.41;5055306;28;19912;-87
2022/09/25 05:58:51;;;;;;;;;;;;;;;12.16;80.68;99695.97;5056173;28;19961;-91
2022/09/25 06:01:17;;;;;;;;;;;;;;;12.21;80.81;99691.28;5055719;28;20357;-94
2022/09/25 06:03:42;;;;;;;;;;;;;;;12.12;80.57;99692.97;5055376;28;19913;-85
2022/09/25 06:06:08;;;;;;;;;;;;;;;12.14;80.34;99696.25;5055188;28;19915;-88
2022/09/25 06:08:34;;;;;;;;;;;;;;;11.93;81.32;99701.72;5056085;28;19916;-92
2022/09/25 06:11:01;;;;;;;;;;;;;;;12.01;81.08;99698.41;5056059;28;20330;-90
2022/09/25 06:13:26;;;;;;;;;;;;;;;12.03;81.08;99701.69;5056028;28;19912;-94
2022/09/25 06:15:52;;;;;;;;;;;;;;;12.15;80.82;99708.78;5055291;28;19915;-94
2022/09/25 06:18:19;;;;;;;;;;;;;;;12.04;80.97;99691.56;5055068;28;19931;-94
2022/09/25 06:20:44;;;;;;;;;;;;;;;12.23;81.10;99696.47;5055193;28;19916;-93
2022/09/25 06:23:09;;;;;;;;;;;;;;;12.09;81.05;99694.28;5055083;28;20265;-92
2022/09/25 06:25:37;;;;;;;;;;;;;;;12.10;81.23;99700.59;5055311;28;19909;-96
2022/09/25 06:28:02;;;;;;;;;;;;;;;12.13;81.30;99695.41;5055151;28;19908;-96
2022/09/25 06:30:35;;;;;;;;;;;;;;;12.21;81.63;99696.75;5055627;28;20003;-92
2022/09/25 06:33:08;;;;;;;;;;;;;;;12.17;81.91;99700.31;5053599;28;20285;-89
2022/09/25 06:35:33;;;;;;;;;;;;;;;12.30;82.05;99704.41;5055158;28;19965;-90
2022/09/25 06:37:59;;;;;;;;;;;;;;;12.36;81.86;99703.28;5055420;28;20000;-88
2022/09/25 06:40:28;;;;;;;;;;;;;;;12.61;81.19;99707.81;5055278;28;19908;-87
2022/09/25 06:42:56;;;;;;;;;;;;;;;12.44;80.61;99710.91;5055041;28;19909;-87
2022/09/25 06:45:21;;;;;;;;;;;;;;;12.37;81.36;99707.63;5055457;28;19915;-88
2022/09/25 06:47:46;;;;;;;;;;;;;;;12.58;80.95;99711.13;5055373;28;19908;-84
2022/09/25 06:50:13;;;;;;;;;;;;;;;12.58;80.68;99710.31;5054821;28;20003;-89
2022/09/25 06:52:42;;;;;;;;;;;;;;;12.46;80.61;99707.91;5055049;28;19909;-90
2022/09/25 06:55:07;;;;;;;;;;;;;;;12.51;80.64;99715.28;5054886;28;19915;-89
2022/09/25 06:57:35;;;;;;;;;;;;;;;12.52;80.31;99716.88;5057002;28;19913;-89
2022/09/25 07:00:01;;;;;;;;;;;;;;;12.57;80.21;99714.16;5058718;28;19912;-89
2022/09/25 07:05:10;;;;;;;;;;;;;;;12.31;81.11;99715.03;5059269;28;19919;-89
2022/09/25 07:07:35;;;;;;;;;;;;;;;12.43;80.96;99713.91;5058501;28;19913;-89
2022/09/25 07:10:00;;;;;;;;;;;;;;;12.36;81.01;99708.75;5058065;28;19961;-89
2022/09/25 07:12:25;;;;;;;;;;;;;;;12.62;80.29;99719.59;5058656;28;19908;-89
2022/09/25 07:14:50;;;;;;;;;;;;;;;12.51;80.70;99720.75;5059311;28;19959;-89
2022/09/25 07:17:16;;;;;;;;;;;;;;;12.61;79.88;99716.03;5058836;28;19915;-89
2022/09/25 07:19:41;;;;;;;;;;;;;;;12.71;80.09;99719.84;5059191;28;19909;-89
2022/09/25 07:22:06;;;;;;;;;;;;;;;12.79;79.35;99715.69;5058573;28;19909;-90
2022/09/25 07:24:32;;;;;;;;;;;;;;;12.85;79.17;99722.78;5058639;28;19909;-90
2022/09/25 07:26:57;;;;;;;;;;;;;;;12.97;78.87;99716.97;5058298;28;19963;-90
2022/09/25 07:29:22;;;;;;;;;;;;;;;12.96;78.90;99720.78;5058274;28;19909;-90
2022/09/25 07:31:47;;;;;;;;;;;;;;;13.05;79.23;99718.28;5058563;28;19916;-88
2022/09/25 07:34:15;;;;;;;;;;;;;;;13.08;78.77;99721.28;5058194;28;19908;-90
2022/09/25 07:36:41;;;;;;;;;;;;;;;13.21;77.62;99729.13;5058651;28;19966;-90
2022/09/25 07:39:07;;;;;;;;;;;;;;;12.99;78.80;99735.84;5058005;28;19915;-89
2022/09/25 07:41:33;;;;;;;;;;;;;;;12.98;79.14;99735.00;5058079;28;20003;-91
2022/09/25 07:43:58;;;;;;;;;;;;;;;13.15;78.72;99729.19;5057158;28;19908;-89
2022/09/25 07:46:27;;;;;;;;;;;;;;;13.34;78.15;99731.25;5058507;28;20318;-90
2022/09/25 07:48:52;;;;;;;;;;;;;;;13.42;77.52;99736.09;5058025;28;20410;-92
2022/09/25 07:51:18;;;;;;;;;;;;;;;13.62;77.45;99739.03;5058561;28;19958;-95
2022/09/25 07:53:44;;;;;;;;;;;;;;;13.62;77.06;99731.63;5058216;28;19908;-95
2022/09/25 07:56:10;;;;;;;;;;;;;;;13.67;77.27;99732.69;5058085;28;20253;-92
2022/09/25 07:58:35;;;;;;;;;;;;;;;13.83;76.31;99727.91;5057718;28;20411;-88
2022/09/25 08:01:02;;;;;;;;;;;;;;;13.92;76.25;99725.34;5057824;28;19908;-93
2022/09/25 08:03:28;;;;;;;;;;;;;;;13.77;76.58;99721.63;5058280;28;19975;-90
2022/09/25 08:06:00;;;;;;;;;;;;;;;13.68;76.38;99726.09;5057607;28;20358;-89
2022/09/25 08:08:26;;;;;;;;;;;;;;;13.82;76.07;99727.06;5057187;28;19920;-88
2022/09/25 08:10:52;;;;;;;;;;;;;;;14.10;74.95;99732.84;5057545;28;19913;-88
2022/09/25 08:13:19;;;;;;;;;;;;;;;14.20;75.12;99731.09;5057524;28;19916;-89
2022/09/25 08:15:45;;;;;;;;;;;;;;;13.88;75.78;99728.66;5057880;28;19909;-87
2022/09/25 08:18:10;;;;;;;;;;;;;;;14.02;75.00;99730.72;5057973;28;19915;-86
2022/09/25 08:20:39;;;;;;;;;;;;;;;14.02;75.05;99728.00;5058023;28;20361;-88
2022/09/25 08:23:04;;;;;;;;;;;;;;;14.24;73.52;99740.38;5057974;28;19947;-88
2022/09/25 08:25:29;;;;;;;;;;;;;;;14.20;73.84;99734.66;5060908;28;19909;-87
2022/09/25 08:27:55;;;;;;;;;;;;;;;14.07;73.78;99727.97;5059184;28;19912;-90
2022/09/25 08:30:20;;;;;;;;;;;;;;;14.23;74.33;99733.28;5057349;28;19955;-87
2022/09/25 08:32:45;;;;;;;;;;;;;;;14.46;73.36;99725.34;5057309;28;19918;-88
2022/09/25 08:35:10;;;;;;;;;;;;;;;14.54;73.10;99721.94;5057062;28;20358;-88
2022/09/25 08:37:39;;;;;;;;;;;;;;;14.56;72.31;99718.94;5056916;28;20284;-94
2022/09/25 08:40:04;;;;;;;;;;;;;;;14.55;72.03;99720.84;5057093;28;19915;-90
2022/09/25 08:42:31;;;;;;;;;;;;;;;14.38;71.43;99723.25;5057294;28;19908;-88
2022/09/25 08:50:28;;;;;;;;;;;;;;;14.19;72.54;99729.47;5057117;28;19915;-94
2022/09/25 08:53:03;;;;;;;;;;;;;;;14.35;72.16;99727.38;5057399;28;20354;-87
2022/09/25 08:58:23;;;;;;;;;;;;;;;13.92;72.38;99733.56;5057052;28;19920;-92
2022/09/25 09:00:51;;;;;;;;;;;;;;;14.05;72.26;99727.44;5054955;28;20238;-94
2022/09/25 09:03:17;;;;;;;;;;;;;;;14.15;71.86;99728.41;5056714;28;19912;-93
2022/09/25 09:05:45;;;;;;;;;;;;;;;14.23;71.49;99733.28;5056488;28;20356;-94
2022/09/25 09:08:19;;;;;;;;;;;;;;;14.27;71.28;99723.38;5056357;28;19908;-93
2022/09/25 09:10:56;;;;;;;;;;;;;;;14.32;70.75;99723.28;5056669;28;19916;-93
2022/09/25 09:13:31;;;;;;;;;;;;;;;14.34;71.03;99720.25;5056342;28;20000;-91
2022/09/25 09:15:57;;;;;;;;;;;;;;;14.12;70.47;99727.06;5056767;28;19959;-93
2022/09/25 09:18:23;;;;;;;;;;;;;;;14.10;69.80;99730.09;5056191;28;19915;-92
2022/09/25 09:20:50;;;;;;;;;;;;;;;14.38;69.93;99728.75;5055494;28;20270;-91
2022/09/25 09:23:17;;;;;;;;;;;;;;;14.24;68.32;99713.78;5056173;28;19912;-91
2022/09/25 09:25:45;;;;;;;;;;;;;;;14.45;69.30;99719.03;5056484;28;19909;-92
2022/09/25 09:28:13;;;;;;;;;;;;;;;14.53;67.83;99714.84;5055958;28;20330;-92
2022/09/25 09:30:52;;;;;;;;;;;;;;;14.29;66.10;99718.41;5056110;28;19924;-92
2022/09/25 09:33:37;;;;;;;;;;;;;;;14.45;66.04;99723.72;5056096;28;19908;-93
2022/09/25 09:36:09;;;;;;;;;;;;;;;14.42;65.96;99710.59;5056086;28;19933;-92
2022/09/25 09:38:40;;;;;;;;;;;;;;;14.46;65.44;99708.91;5055917;28;19909;-92
2022/09/25 09:41:09;;;;;;;;;;;;;;;14.50;64.31;99712.69;5056152;28;19958;-91
2022/09/25 09:43:36;;;;;;;;;;;;;;;14.72;64.48;99705.84;5055716;28;20375;-93
2022/09/25 09:46:14;;;;;;;;;;;;;;;14.79;64.25;99711.78;5055730;28;19908;-93
2022/09/25 09:48:58;;;;;;;;;;;;;;;14.79;64.25;99700.78;5054758;28;19954;-92
2022/09/25 09:51:27;;;;;;;;;;;;;;;14.93;64.17;99700.09;5055600;28;19916;-91
2022/09/25 09:53:54;;;;;;;;;;;;;;;14.95;64.58;99708.84;5055629;28;19915;-91
2022/09/25 09:56:28;;;;;;;;;;;;;;;14.74;64.22;99705.53;5055220;28;19916;-93
2022/09/25 09:58:53;;;;;;;;;;;;;;;14.80;63.50;99709.84;5056280;28;20334;-92
2022/09/25 10:01:21;;;;;;;;;;;;;;;14.78;62.38;99701.09;5055864;28;19919;-93
2022/09/25 10:03:48;;;;;;;;;;;;;;;14.70;62.24;99703.41;5055448;28;19912;-94
2022/09/25 10:06:14;;;;;;;;;;;;;;;14.75;63.02;99704.41;5055330;28;19909;-94
2022/09/25 10:08:41;;;;;;;;;;;;;;;15.02;63.11;99709.31;5056138;28;20253;-94
2022/09/25 10:11:16;;;;;;;;;;;;;;;14.94;62.17;99708.03;5055578;28;20338;-93
2022/09/25 10:13:43;;;;;;;;;;;;;;;15.31;62.55;99709.44;5055338;28;19908;-93
2022/09/25 10:16:14;;;;;;;;;;;;;;;15.44;61.22;99702.38;5055238;28;20415;-93
2022/09/25 10:18:45;;;;;;;;;;;;;;;15.59;61.83;99704.06;5054870;28;19954;-88
2022/09/25 10:21:21;;;;;;;;;;;;;;;15.08;60.01;99695.50;5055830;28;19915;-92
2022/09/25 10:23:53;;;;;;;;;;;;;;;14.97;60.36;99698.38;5055565;28;19916;-94
2022/09/25 10:26:38;;;;;;;;;;;;;;;14.99;61.02;99704.41;5055607;28;20401;-92
2022/09/25 10:29:06;;;;;;;;;;;;;;;15.33;60.75;99708.03;5055133;28;19970;-92
2022/09/25 10:31:33;;;;;;;;;;;;;;;15.42;61.27;99704.63;5055031;28;19972;-92
2022/09/25 10:34:00;;;;;;;;;;;;;;;15.37;61.56;99698.09;5054938;28;20459;-91
2022/09/25 10:36:37;;;;;;;;;;;;;;;15.45;60.19;99698.50;5055016;28;20261;-91
2022/09/25 10:39:04;;;;;;;;;;;;;;;15.24;60.18;99698.81;5054794;28;19915;-93
2022/09/25 10:41:39;;;;;;;;;;;;;;;15.27;59.47;99699.06;5054836;28;19908;-94
2022/09/25 10:44:17;;;;;;;;;;;;;;;15.66;60.02;99698.19;5055361;28;19931;-92
2022/09/25 10:52:12;;;;;;;;;;;;;;;15.63;59.62;99694.91;5055257;28;20022;-93
2022/09/25 10:54:38;;;;;;;;;;;;;;;15.48;59.55;99698.72;5055540;28;19909;-93
2022/09/25 10:57:22;;;;;;;;;;;;;;;15.50;58.65;99699.25;5055307;28;19908;-93
2022/09/25 10:59:48;;;;;;;;;;;;;;;15.86;58.43;99697.81;5054638;28;19909;-86
2022/09/25 11:02:20;;;;;;;;;;;;;;;15.75;58.63;99697.19;5054445;28;19909;-89
2022/09/25 11:04:50;;;;;;;;;;;;;;;16.25;57.48;99691.38;5055497;28;19912;-90
2022/09/25 11:07:17;;;;;;;;;;;;;;;16.09;57.21;99686.97;5054632;28;19913;-89
2022/09/25 11:09:43;;;;;;;;;;;;;;;15.92;56.96;99684.81;5054644;28;20467;-83
2022/09/25 11:12:22;;;;;;;;;;;;;;;15.88;56.91;99686.53;5054994;28;20003;-89
2022/09/25 11:15:01;;;;;;;;;;;;;;;16.31;55.98;99690.97;5055235;28;20365;-88
2022/09/25 11:17:40;;;;;;;;;;;;;;;16.48;53.78;99689.53;5054701;28;19919;-88
2022/09/25 11:20:18;;;;;;;;;;;;;;;16.18;56.01;99678.84;5054673;28;19944;-92
2022/09/25 11:22:47;;;;;;;;;;;;;;;15.72;56.10;99680.50;5054649;28;19952;-91
2022/09/25 11:25:20;;;;;;;;;;;;;;;16.03;55.98;99676.41;5054261;28;19908;-91
2022/09/25 11:27:53;;;;;;;;;;;;;;;15.94;54.25;99682.56;5055230;28;19912;-91
2022/09/25 11:30:19;;;;;;;;;;;;;;;16.27;55.72;99681.69;5054705;28;20008;-91
2022/09/25 11:32:47;;;;;;;;;;;;;;;16.21;55.19;99675.47;5054921;28;20007;-90
2022/09/25 11:35:53;;;;;;;;;;;;;;;16.24;55.80;99674.06;5054918;28;19912;-92
2022/09/25 11:41:11;;;;;;;;;;;;;;;16.21;55.19;99667.22;5033759;28;20346;-91
2022/09/25 11:41:21;;;;;;;;;;;;;;;16.30;56.22;99664.59;5033612;28;19909;-92
2022/09/25 11:43:50;;;;;;;;;;;;;;;15.81;56.65;99670.44;5044735;28;19944;-91
2022/09/25 11:46:21;;;;;;;;;;;;;;;15.96;57.35;99669.34;5058912;28;19943;-92
2022/09/25 11:48:55;;;;;;;;;;;;;;;15.98;56.35;99667.09;5058033;28;19909;-93
2022/09/25 11:51:34;;;;;;;;;;;;;;;16.24;55.36;99659.50;5058695;28;19908;-92
2022/09/25 11:53:59;;;;;;;;;;;;;;;16.43;53.05;99656.66;5058801;28;19944;-94
2022/09/25 11:56:31;;;;;;;;;;;;;;;16.17;54.18;99668.97;5058496;28;20373;-92
2022/09/25 11:59:15;;;;;;;;;;;;;;;16.14;55.54;99672.34;5058233;28;19967;-93
2022/09/25 12:01:45;;;;;;;;;;;;;;;15.87;55.05;99665.66;5058084;28;19913;-92
2022/09/25 12:04:23;;;;;;;;;;;;;;;15.64;56.32;99660.81;5058059;28;19991;-91
2022/09/25 12:06:48;;;;;;;;;;;;;;;15.42;55.12;99672.44;5057997;28;19909;-91
2022/09/25 12:09:16;;;;;;;;;;;;;;;15.76;54.77;99657.59;5058102;28;20400;-92
2022/09/25 12:11:44;;;;;;;;;;;;;;;15.97;54.07;99661.88;5058474;28;19931;-92
2022/09/25 12:14:09;;;;;;;;;;;;;;;16.00;53.68;99661.28;5058353;28;19908;-92
2022/09/25 12:16:40;;;;;;;;;;;;;;;15.84;52.06;99653.34;5058258;28;19912;-92
2022/09/25 12:19:22;;;;;;;;;;;;;;;16.15;51.65;99651.94;5057691;28;19958;-91
2022/09/25 12:21:59;;;;;;;;;;;;;;;16.19;52.78;99644.72;5057852;28;19915;-95
2022/09/25 12:24:51;;;;;;;;;;;;;;;16.28;53.09;99644.00;5057746;28;20054;-92
2022/09/25 12:27:31;;;;;;;;;;;;;;;16.30;53.15;99641.75;5058304;28;19972;-89
2022/09/25 12:30:06;;;;;;;;;;;;;;;16.13;53.88;99650.66;5057865;28;19908;-95
2022/09/25 12:32:39;;;;;;;;;;;;;;;16.22;53.49;99644.13;5057199;28;19913;-89
2022/09/25 12:35:09;;;;;;;;;;;;;;;16.17;52.74;99641.47;5056068;28;19919;-92
2022/09/25 12:37:38;;;;;;;;;;;;;;;16.38;52.52;99630.03;5057725;28;20003;-88
2022/09/25 12:40:10;;;;;;;;;;;;;;;16.65;52.83;99633.88;5057146;28;19916;-94
2022/09/25 12:42:44;;;;;;;;;;;;;;;16.41;52.28;99618.44;5057819;28;20234;-92
2022/09/25 12:45:14;;;;;;;;;;;;;;;16.18;52.84;99621.09;5057378;28;20249;-94
2022/09/25 12:47:45;;;;;;;;;;;;;;;16.18;52.89;99615.59;5057379;28;19960;-94
2022/09/25 12:50:19;;;;;;;;;;;;;;;15.96;52.32;99611.59;5056976;28;19939;-94
2022/09/25 12:52:48;;;;;;;;;;;;;;;15.78;53.00;99615.25;5056650;28;19908;-94
2022/09/25 12:55:19;;;;;;;;;;;;;;;15.60;52.11;99615.03;5055507;28;20308;-94
2022/09/25 12:57:54;;;;;;;;;;;;;;;15.42;53.05;99611.22;5056959;28;19915;-94
2022/09/25 13:00:21;;;;;;;;;;;;;;;15.56;53.14;99620.28;5057343;28;19909;-94
2022/09/25 13:03:05;;;;;;;;;;;;;;;15.90;52.60;99609.25;5056437;28;19916;-93
2022/09/25 13:05:33;;;;;;;;;;;;;;;16.11;52.01;99601.44;5056465;28;19915;-94
2022/09/25 13:08:05;;;;;;;;;;;;;;;16.30;51.88;99606.00;5057219;28;20059;-94
2022/09/25 13:10:38;;;;;;;;;;;;;;;16.38;53.22;99607.22;5057270;28;19940;-94
2022/09/25 13:13:07;;;;;;;;;;;;;;;16.41;52.67;99601.13;5056434;28;19915;-94
2022/09/25 13:15:36;;;;;;;;;;;;;;;16.68;50.32;99599.41;5056365;28;20341;-93
2022/09/25 13:18:02;;;;;;;;;;;;;;;16.64;51.82;99599.22;5056507;28;20411;-93